This is the latest recevied weather packets stored in our database for station/object WY1U-1. If no packets are shown the sender has not sent any weather packets the latest 10 day(s).
| Time | Temp. | Humidity | Pressure | Rain* | Wind** | Luminosity | Snow |
|---|---|---|---|---|---|---|---|
| 1777417311 | 16.11° C | 48% | 1018.4 hPa | 0 mm | - | - | - |
| 1777413711 | 17.22° C | 46% | 1018.4 hPa | 0 mm | - | - | - |
| 1777410110 | 18.89° C | 42% | 1018.7 hPa | 0 mm | - | - | - |
| 1777406510 | 20.56° C | 38% | 1019.3 hPa | 0 mm | - | - | - |
| 1777402911 | 20° C | 38% | 1019.9 hPa | 0 mm | - | - | - |
| 1777395711 | 20° C | 40% | 1020.9 hPa | 0 mm | - | - | - |
| 1777392111 | 20° C | 41% | 1021.2 hPa | 0 mm | - | - | - |
| 1777388511 | 20° C | 39% | 1021.8 hPa | 0 mm | - | - | - |
| 1777381311 | 15° C | 54% | 1022.5 hPa | 0 mm | - | - | - |
| 1777375909 | 9.44° C | 84% | 1022.8 hPa | 0 mm | - | - | - |
| 1777374110 | 7.22° C | 89% | 1022.7 hPa | 0 mm | - | - | - |
| 1777372310 | 6.11° C | 89% | 1022.6 hPa | 0 mm | - | - | - |
| 1777370510 | 6.11° C | 88% | 1022.7 hPa | 0 mm | - | - | - |
| 1777367036 | 6.11° C | 88% | 1022.9 hPa | 0 mm | - | - | - |
| 1777366911 | 6.11° C | 88% | 1022.9 hPa | 0 mm | - | - | - |
| 1777363310 | 6.11° C | 88% | 1022.8 hPa | 0 mm | - | - | - |
| 1777359758 | 7.22° C | 85% | 1022.7 hPa | 0 mm | - | - | - |
| 1777359710 | 7.22° C | 85% | 1022.7 hPa | 0 mm | - | - | - |
| 1777357909 | 7.78° C | 83% | 1022.7 hPa | 0 mm | - | - | - |
| 1777356110 | 7.78° C | 82% | 1022.7 hPa | 0 mm | - | - | - |
| 1777352510 | 8.33° C | 80% | 1023.4 hPa | 0 mm | - | - | - |
| 1777350709 | 8.89° C | 75% | 1024.1 hPa | 0 mm | - | - | - |
| 1777348910 | 9.44° C | 74% | 1024.7 hPa | 0 mm | - | - | - |
| 1777345311 | 10.56° C | 68% | 1024.9 hPa | 0 mm | - | - | - |
| 1777341710 | 12.22° C | 62% | 1025.3 hPa | 0 mm | - | - | - |
* Rain latest hour (hover to see other rain measurements)
** Current wind speed in m/s (hover to see current wind gust speed)